createdAt,value
2018-12-13T00:00:36.756Z,13.40
2018-12-13T00:03:04.299Z,13.87
2018-12-13T00:05:31.973Z,13.73
2018-12-13T00:07:59.549Z,13.30
2018-12-13T00:10:27.031Z,13.40
2018-12-13T00:12:54.516Z,13.20
2018-12-13T00:15:23.634Z,13.03
2018-12-13T00:17:51.106Z,14.23
2018-12-13T00:20:18.614Z,13.53
2018-12-13T00:22:46.110Z,15.33
2018-12-13T00:25:13.568Z,14.97
2018-12-13T00:27:41.729Z,16.20
2018-12-13T00:30:09.521Z,14.60
2018-12-13T00:32:37.054Z,15.33
2018-12-13T00:35:04.645Z,15.70
2018-12-13T00:37:32.784Z,15.60
2018-12-13T00:40:00.267Z,16.50
2018-12-13T00:42:28.947Z,14.80
2018-12-13T00:44:56.406Z,16.23
2018-12-13T00:47:23.916Z,16.80
2018-12-13T00:49:51.547Z,16.70
2018-12-13T00:52:19.001Z,16.10
2018-12-13T00:54:46.471Z,15.60
2018-12-13T00:57:13.942Z,16.30
2018-12-13T00:59:41.417Z,17.80
2018-12-13T01:02:09.369Z,15.43
2018-12-13T01:04:36.836Z,16.77
2018-12-13T01:07:04.355Z,17.73
2018-12-13T01:09:31.832Z,18.13
2018-12-13T01:11:59.797Z,17.43
2018-12-13T01:14:27.257Z,17.73
2018-12-13T01:16:54.708Z,19.70
2018-12-13T01:19:22.171Z,18.83
2018-12-13T01:21:49.642Z,19.13
2018-12-13T01:24:17.117Z,19.43
2018-12-13T01:26:44.589Z,19.47
2018-12-13T01:29:12.072Z,19.30
2018-12-13T01:31:39.536Z,19.67
2018-12-13T01:34:06.995Z,19.87
2018-12-13T01:36:34.437Z,20.10
2018-12-13T01:39:01.893Z,20.03
2018-12-13T01:41:29.403Z,20.70
2018-12-13T01:43:56.888Z,20.77
2018-12-13T01:46:24.380Z,20.30
2018-12-13T01:48:52.168Z,19.77
2018-12-13T01:51:19.630Z,20.80
2018-12-13T01:53:47.162Z,20.80
2018-12-13T01:56:14.660Z,22.13
2018-12-13T01:58:42.148Z,21.13
2018-12-13T02:01:09.620Z,19.73
2018-12-13T02:03:37.088Z,19.77
2018-12-13T02:06:04.618Z,22.63
2018-12-13T02:08:32.094Z,22.07
2018-12-13T02:10:59.569Z,21.27
2018-12-13T02:13:27.042Z,21.57
2018-12-13T02:15:54.509Z,23.27
2018-12-13T02:18:22.113Z,19.90
2018-12-13T02:20:50.165Z,21.90
2018-12-13T02:23:17.644Z,22.27
2018-12-13T02:25:45.219Z,21.17
2018-12-13T02:28:12.758Z,22.90
2018-12-13T02:30:41.103Z,21.90
2018-12-13T02:33:08.602Z,22.27
2018-12-13T02:35:36.076Z,20.70
2018-12-13T02:38:03.595Z,18.43
2018-12-13T02:40:31.160Z,19.73
2018-12-13T02:42:58.618Z,19.50
2018-12-13T02:45:27.111Z,19.17
2018-12-13T02:47:54.593Z,21.07
2018-12-13T02:50:22.100Z,19.87
2018-12-13T02:52:49.575Z,20.30
2018-12-13T02:55:17.582Z,20.00
2018-12-13T02:57:45.077Z,21.20
2018-12-13T03:00:13.049Z,19.40
2018-12-13T03:02:40.556Z,21.90
2018-12-13T03:05:08.737Z,19.20
2018-12-13T03:07:36.199Z,20.13
2018-12-13T03:10:05.051Z,18.67
2018-12-13T03:12:32.908Z,20.10
2018-12-13T03:15:00.353Z,19.50
2018-12-13T03:17:27.811Z,20.50
2018-12-13T03:19:55.277Z,20.40
2018-12-13T03:22:22.746Z,20.73
2018-12-13T03:24:50.212Z,19.67
2018-12-13T03:27:17.698Z,20.17
2018-12-13T03:29:45.535Z,18.93
2018-12-13T03:32:13.013Z,22.17
2018-12-13T03:34:40.632Z,20.27
2018-12-13T03:37:08.092Z,20.20
2018-12-13T03:39:35.571Z,22.63
2018-12-13T03:42:03.133Z,21.33
2018-12-13T03:44:30.604Z,21.63
2018-12-13T03:46:58.082Z,22.43
2018-12-13T03:49:25.575Z,23.63
2018-12-13T03:51:53.051Z,22.97
2018-12-13T03:54:20.523Z,22.03
2018-12-13T03:56:47.983Z,23.23
2018-12-13T03:59:16.056Z,22.70
2018-12-13T04:01:43.560Z,23.70
2018-12-13T04:04:11.028Z,22.13
2018-12-13T04:06:38.488Z,21.63
2018-12-13T04:09:07.203Z,21.77
2018-12-13T04:11:34.676Z,20.43
2018-12-13T04:14:02.456Z,23.00
2018-12-13T04:16:29.924Z,23.27
2018-12-13T04:18:57.372Z,22.70
2018-12-13T04:21:24.846Z,23.70
2018-12-13T04:23:52.344Z,22.43
2018-12-13T04:26:19.796Z,23.40
2018-12-13T04:28:47.270Z,21.13
2018-12-13T04:31:14.813Z,21.70
2018-12-13T04:33:42.291Z,20.53
2018-12-13T04:36:09.777Z,20.17
2018-12-13T04:38:37.237Z,20.33
2018-12-13T04:41:05.132Z,18.60
2018-12-13T04:43:32.607Z,18.10
2018-12-13T04:46:00.310Z,16.83
2018-12-13T04:48:27.814Z,17.13
2018-12-13T04:50:55.295Z,17.53
2018-12-13T04:53:22.779Z,16.13
2018-12-13T04:55:50.255Z,17.50
2018-12-13T04:58:17.743Z,18.37
2018-12-13T05:00:45.680Z,17.07
2018-12-13T05:03:13.147Z,13.90
2018-12-13T05:05:40.633Z,15.27
2018-12-13T05:08:08.173Z,15.10
2018-12-13T05:10:52.310Z,14.13
2018-12-13T05:13:19.898Z,14.70
2018-12-13T05:15:47.422Z,14.07
2018-12-13T05:18:14.943Z,13.90
2018-12-13T05:20:42.449Z,13.73
2018-12-13T05:23:09.950Z,12.80
2018-12-13T05:25:37.410Z,13.47
2018-12-13T05:28:04.889Z,15.30
2018-12-13T05:30:32.414Z,14.27
2018-12-13T05:33:00.019Z,14.40
2018-12-13T05:35:27.500Z,13.43
2018-12-13T05:37:54.956Z,15.57
2018-12-13T05:40:22.416Z,13.13
2018-12-13T05:42:49.956Z,15.33
2018-12-13T05:45:17.528Z,15.37
2018-12-13T05:47:45.083Z,15.83
2018-12-13T05:50:12.647Z,16.73
2018-12-13T05:52:40.120Z,15.97
2018-12-13T05:55:08.581Z,17.03
2018-12-13T06:00:17.971Z,17.97
2018-12-13T06:02:45.509Z,17.97
2018-12-13T06:05:12.951Z,16.73
2018-12-13T06:07:40.502Z,19.10
2018-12-13T06:10:08.046Z,20.80
2018-12-13T06:12:35.534Z,20.27
2018-12-13T06:15:03.052Z,20.30
2018-12-13T06:17:30.523Z,19.13
2018-12-13T06:19:58.000Z,20.07
2018-12-13T06:22:25.970Z,21.33
2018-12-13T06:24:53.426Z,21.37
2018-12-13T06:27:21.697Z,20.90
2018-12-13T06:29:49.170Z,21.27
2018-12-13T06:32:16.753Z,19.40
2018-12-13T06:34:44.229Z,18.97
2018-12-13T06:37:11.705Z,18.07
2018-12-13T06:39:39.168Z,17.40
2018-12-13T06:42:06.691Z,17.73
2018-12-13T06:44:34.159Z,16.67
2018-12-13T06:47:01.651Z,15.73
2018-12-13T06:49:29.196Z,16.37
2018-12-13T06:51:56.662Z,16.00
2018-12-13T06:54:24.169Z,16.03
2018-12-13T06:56:52.088Z,15.57
2018-12-13T06:59:19.566Z,16.80
2018-12-13T07:01:47.076Z,17.03
2018-12-13T07:04:14.533Z,15.83
2018-12-13T07:06:42.031Z,15.83
2018-12-13T07:09:09.488Z,15.30
2018-12-13T07:11:37.013Z,15.33
2018-12-13T07:14:04.496Z,15.20
2018-12-13T07:16:32.179Z,15.57
2018-12-13T07:18:59.679Z,15.23
2018-12-13T07:21:27.133Z,15.47
2018-12-13T07:23:54.626Z,13.77
2018-12-13T07:26:22.132Z,14.17
2018-12-13T07:28:49.634Z,14.53
2018-12-13T07:31:17.109Z,14.10
2018-12-13T07:33:44.584Z,14.17
2018-12-13T07:36:12.860Z,14.63
2018-12-13T07:38:40.343Z,14.70
2018-12-13T07:41:07.877Z,15.33
2018-12-13T07:43:35.414Z,14.80
2018-12-13T07:46:02.862Z,14.43
2018-12-13T07:48:30.321Z,13.60
2018-12-13T07:50:58.087Z,13.33
2018-12-13T07:53:25.558Z,13.27
2018-12-13T07:55:53.005Z,11.83
2018-12-13T07:58:20.480Z,12.47
2018-12-13T08:00:48.112Z,12.40
2018-12-13T08:03:15.601Z,11.07
2018-12-13T08:05:43.110Z,10.70
2018-12-13T08:08:10.628Z,10.73
2018-12-13T08:10:38.130Z,11.20
2018-12-13T08:13:05.690Z,11.07
2018-12-13T08:15:33.157Z,10.60
2018-12-13T08:18:00.664Z,12.73
2018-12-13T08:20:28.151Z,11.63
2018-12-13T08:22:55.616Z,12.17
2018-12-13T08:25:23.259Z,11.83
2018-12-13T08:27:50.740Z,11.53
2018-12-13T08:30:18.209Z,12.53
2018-12-13T08:32:45.718Z,11.57
2018-12-13T08:35:13.222Z,10.73
2018-12-13T08:37:40.685Z,11.77
2018-12-13T08:40:08.329Z,10.80
2018-12-13T08:42:35.820Z,12.80
2018-12-13T08:45:03.468Z,12.13
2018-12-13T08:47:30.930Z,13.13
2018-12-13T08:49:58.432Z,11.90
2018-12-13T08:52:25.912Z,13.00
2018-12-13T08:54:53.383Z,12.60
2018-12-13T08:57:20.853Z,12.83
2018-12-13T08:59:48.337Z,13.83
2018-12-13T09:02:15.817Z,13.03
2018-12-13T09:04:43.308Z,12.73
2018-12-13T09:07:10.816Z,12.47
2018-12-13T09:09:38.303Z,13.23
2018-12-13T09:12:05.795Z,13.77
2018-12-13T09:14:33.254Z,13.57
2018-12-13T09:17:00.716Z,13.07
2018-12-13T09:19:28.160Z,12.90
2018-12-13T09:21:55.622Z,11.20
2018-12-13T09:24:23.081Z,13.40
2018-12-13T09:26:51.561Z,12.50
2018-12-13T09:29:19.051Z,13.13
2018-12-13T09:31:46.499Z,13.47
2018-12-13T09:34:13.965Z,13.30
2018-12-13T09:36:41.427Z,15.00
2018-12-13T09:39:08.884Z,13.93
2018-12-13T09:41:36.951Z,12.83
2018-12-13T09:44:04.420Z,13.57
2018-12-13T09:46:32.543Z,13.37
2018-12-13T09:48:59.996Z,13.23
2018-12-13T09:51:27.461Z,12.17
2018-12-13T09:53:54.996Z,12.57
2018-12-13T09:56:22.493Z,12.03
2018-12-13T09:58:49.952Z,11.33
2018-12-13T10:01:18.073Z,12.30
2018-12-13T10:03:45.543Z,10.43
2018-12-13T10:06:12.985Z,11.10
2018-12-13T10:08:46.157Z,10.57
2018-12-13T10:11:09.937Z,11.30
2018-12-13T10:13:37.395Z,8.73
2018-12-13T10:16:04.872Z,10.10
2018-12-13T10:18:32.325Z,11.43
2018-12-13T10:20:59.769Z,10.67
2018-12-13T10:23:27.241Z,10.80
2018-12-13T10:25:59.525Z,10.53
2018-12-13T10:28:24.191Z,11.30
2018-12-13T10:30:51.651Z,11.03
2018-12-13T10:33:19.111Z,10.23
2018-12-13T10:35:46.592Z,10.60
2018-12-13T10:38:14.161Z,11.90
2018-12-13T10:40:41.652Z,10.70
2018-12-13T10:43:09.132Z,11.70
2018-12-13T10:45:36.589Z,11.23
2018-12-13T10:48:04.073Z,11.33
2018-12-13T10:50:31.648Z,12.13
2018-12-13T10:52:59.109Z,10.57
2018-12-13T10:55:26.623Z,11.37
2018-12-13T10:57:54.101Z,10.70
2018-12-13T11:00:27.187Z,11.63
2018-12-13T11:03:08.335Z,9.83
2018-12-13T11:05:35.823Z,10.90
2018-12-13T11:08:03.312Z,10.63
2018-12-13T11:10:30.788Z,9.90
2018-12-13T11:12:58.250Z,9.33
2018-12-13T11:15:25.715Z,9.80
2018-12-13T11:17:53.796Z,9.93
2018-12-13T11:20:21.253Z,9.87
2018-12-13T11:22:48.735Z,11.10
2018-12-13T11:25:16.250Z,10.43
2018-12-13T11:28:09.170Z,9.53
2018-12-13T11:30:36.624Z,9.63
2018-12-13T11:33:04.167Z,10.27
2018-12-13T11:35:31.635Z,9.43
2018-12-13T11:37:59.209Z,9.47
2018-12-13T11:40:26.734Z,9.93
2018-12-13T11:42:54.203Z,9.53
2018-12-13T11:45:21.769Z,9.77
2018-12-13T11:47:49.227Z,9.53
2018-12-13T11:50:16.768Z,10.20
2018-12-13T11:52:44.212Z,9.80
2018-12-13T11:55:39.493Z,9.73
2018-12-13T11:58:07.010Z,9.43
2018-12-13T12:00:34.509Z,9.70
2018-12-13T12:03:01.975Z,9.30
2018-12-13T12:05:29.495Z,9.23
2018-12-13T12:07:57.012Z,9.57
2018-12-13T12:10:24.557Z,11.17
2018-12-13T12:12:52.045Z,9.13
2018-12-13T12:15:19.521Z,9.10
2018-12-13T12:17:46.997Z,10.10
2018-12-13T12:20:14.581Z,10.33
2018-12-13T12:22:42.067Z,9.80
2018-12-13T12:25:09.514Z,9.57
2018-12-13T12:27:36.988Z,9.03
2018-12-13T12:30:05.612Z,10.37
2018-12-13T12:32:33.082Z,9.13
2018-12-13T12:35:00.533Z,10.90
2018-12-13T12:37:28.053Z,10.03
2018-12-13T12:39:55.645Z,11.30
2018-12-13T12:42:23.109Z,11.77
2018-12-13T12:44:50.647Z,11.97
2018-12-13T12:47:18.191Z,10.90
2018-12-13T12:52:19.602Z,11.93
2018-12-13T12:54:47.420Z,9.93
2018-12-13T12:57:14.899Z,10.33
2018-12-13T12:59:42.435Z,10.57
2018-12-13T13:02:09.876Z,10.00
2018-12-13T13:04:37.332Z,10.33
2018-12-13T13:07:04.875Z,10.97
2018-12-13T13:09:32.337Z,10.60
2018-12-13T13:11:59.817Z,11.60
2018-12-13T13:14:27.274Z,12.10
2018-12-13T13:16:54.729Z,11.47
2018-12-13T13:19:22.205Z,10.87
2018-12-13T13:21:49.689Z,10.67
2018-12-13T13:24:17.151Z,11.03
2018-12-13T13:26:44.658Z,10.60
2018-12-13T13:29:12.097Z,10.00
2018-12-13T13:31:39.677Z,10.67
2018-12-13T13:34:07.162Z,10.20
2018-12-13T13:36:34.642Z,9.70
2018-12-13T13:39:02.106Z,10.00
2018-12-13T13:41:29.574Z,10.20
2018-12-13T13:43:57.039Z,9.87
2018-12-13T13:46:24.484Z,10.03
2018-12-13T13:48:51.947Z,10.37
2018-12-13T13:51:19.512Z,10.37
2018-12-13T13:53:46.986Z,10.43
2018-12-13T13:56:14.455Z,10.53
2018-12-13T13:58:41.967Z,10.93
2018-12-13T14:01:09.426Z,10.57
2018-12-13T14:03:36.926Z,10.27
2018-12-13T14:06:04.398Z,10.50
2018-12-13T14:08:31.875Z,10.47
2018-12-13T14:10:59.455Z,9.90
2018-12-13T14:13:27.126Z,10.83
2018-12-13T14:15:54.597Z,9.73
2018-12-13T14:18:22.057Z,10.53
2018-12-13T14:20:49.552Z,10.33
2018-12-13T14:23:17.180Z,10.30
2018-12-13T14:25:44.780Z,10.63
2018-12-13T14:28:12.250Z,11.13
2018-12-13T14:30:39.707Z,11.83
2018-12-13T14:33:07.177Z,11.53
2018-12-13T14:35:34.670Z,10.90
2018-12-13T14:38:02.198Z,12.07
2018-12-13T14:40:29.674Z,12.17
2018-12-13T14:42:57.159Z,11.27
2018-12-13T14:45:24.667Z,11.77
2018-12-13T14:47:52.160Z,11.37
2018-12-13T14:50:19.666Z,11.67
2018-12-13T14:52:47.131Z,12.07
2018-12-13T14:55:14.667Z,11.03
2018-12-13T14:57:42.177Z,11.37
2018-12-13T15:00:09.806Z,12.23
2018-12-13T15:02:37.324Z,11.93
2018-12-13T15:05:04.957Z,11.67
2018-12-13T15:07:32.416Z,12.73
2018-12-13T15:09:59.869Z,11.40
2018-12-13T15:12:27.341Z,11.60
2018-12-13T15:14:54.799Z,11.30
2018-12-13T15:17:22.257Z,11.13
2018-12-13T15:19:49.738Z,10.90
2018-12-13T15:22:17.213Z,10.30
2018-12-13T15:24:44.698Z,10.77
2018-12-13T15:27:12.161Z,11.03
2018-12-13T15:29:39.621Z,9.93
2018-12-13T15:32:07.210Z,10.83
2018-12-13T15:34:34.671Z,10.60
2018-12-13T15:37:02.176Z,10.83
2018-12-13T15:39:29.664Z,11.10
2018-12-13T15:41:57.172Z,11.50
2018-12-13T15:44:24.739Z,11.53
2018-12-13T15:46:52.239Z,11.33
2018-12-13T15:49:20.169Z,11.47
2018-12-13T15:51:47.665Z,10.67
2018-12-13T15:54:15.120Z,12.03
2018-12-13T15:56:42.582Z,10.83
2018-12-13T15:59:10.083Z,11.30
2018-12-13T16:01:37.613Z,11.57
2018-12-13T16:04:05.104Z,12.07
2018-12-13T16:06:32.583Z,12.57
2018-12-13T16:09:00.124Z,12.37
2018-12-13T16:11:27.633Z,11.60
2018-12-13T16:13:55.120Z,12.33
2018-12-13T16:16:22.656Z,12.50
2018-12-13T16:18:50.186Z,11.73
2018-12-13T16:21:18.033Z,12.23
2018-12-13T16:23:45.522Z,12.37
2018-12-13T16:26:13.319Z,12.77
2018-12-13T16:28:40.809Z,12.80
2018-12-13T16:31:14.353Z,11.53
2018-12-13T16:33:41.845Z,11.87
2018-12-13T16:36:09.367Z,12.40
2018-12-13T16:38:37.052Z,13.13
2018-12-13T16:41:04.571Z,13.30
2018-12-13T16:43:33.623Z,12.23
2018-12-13T16:46:01.796Z,12.73
2018-12-13T16:48:29.309Z,12.33
2018-12-13T16:50:58.475Z,12.87
2018-12-13T16:53:26.148Z,13.30
2018-12-13T16:55:53.648Z,12.77
2018-12-13T16:58:21.101Z,12.17
2018-12-13T17:00:49.807Z,12.83
2018-12-13T17:06:23.677Z,12.67
2018-12-13T17:08:51.228Z,15.27
2018-12-13T17:11:18.745Z,13.57
2018-12-13T17:13:46.252Z,14.90
2018-12-13T17:16:13.817Z,13.90
2018-12-13T17:18:41.290Z,13.23
2018-12-13T17:21:12.088Z,12.43
2018-12-13T17:23:42.577Z,14.23
2018-12-13T17:26:10.047Z,13.27
2018-12-13T17:28:37.632Z,12.50
2018-12-13T17:31:05.409Z,12.53
2018-12-13T17:33:32.922Z,12.77
2018-12-13T17:36:00.415Z,12.17
2018-12-13T17:38:29.507Z,11.57
2018-12-13T17:40:57.128Z,12.47
2018-12-13T17:43:24.658Z,11.63
2018-12-13T17:45:55.363Z,12.03
2018-12-13T17:48:23.445Z,11.13
2018-12-13T17:50:50.904Z,10.67
2018-12-13T17:53:18.639Z,11.40
2018-12-13T17:55:46.198Z,11.50
2018-12-13T17:58:14.876Z,11.63
2018-12-13T18:00:42.379Z,11.60
2018-12-13T18:03:09.934Z,11.60
2018-12-13T18:05:37.427Z,11.43
2018-12-13T18:08:05.017Z,11.83
2018-12-13T18:10:32.829Z,11.27
2018-12-13T18:13:00.487Z,11.40
2018-12-13T18:15:28.175Z,11.03
2018-12-13T18:17:55.913Z,11.17
2018-12-13T18:20:24.360Z,10.90
2018-12-13T18:22:52.062Z,11.70
2018-12-13T18:25:19.791Z,11.23
2018-12-13T18:27:47.298Z,11.70
2018-12-13T18:30:14.756Z,11.67
2018-12-13T18:32:42.217Z,12.53
2018-12-13T18:35:09.759Z,12.40
2018-12-13T18:37:37.294Z,12.63
2018-12-13T18:40:05.740Z,11.57
2018-12-13T18:42:34.308Z,12.33
2018-12-13T18:45:02.372Z,13.10
2018-12-13T18:47:30.586Z,12.10
2018-12-13T18:49:58.079Z,11.47
2018-12-13T18:52:25.692Z,12.53
2018-12-13T18:54:53.386Z,13.20
2018-12-13T18:57:24.235Z,12.63
2018-12-13T18:59:51.795Z,12.40
2018-12-13T19:02:19.257Z,12.80
2018-12-13T19:04:46.702Z,13.43
2018-12-13T19:07:14.339Z,13.27
2018-12-13T19:09:45.880Z,13.50
2018-12-13T19:12:13.377Z,14.00
2018-12-13T19:14:40.852Z,14.43
2018-12-13T19:17:10.696Z,13.47
2018-12-13T19:19:38.200Z,14.37
2018-12-13T19:22:05.689Z,14.17
2018-12-13T19:24:33.165Z,13.40
2018-12-13T19:27:00.688Z,15.83
2018-12-13T19:29:28.289Z,14.73
2018-12-13T19:31:55.839Z,14.87
2018-12-13T19:34:23.296Z,14.50
2018-12-13T19:36:50.770Z,15.07
2018-12-13T19:39:18.804Z,15.33
2018-12-13T19:41:46.252Z,16.23
2018-12-13T19:44:14.232Z,15.73
2018-12-13T19:46:42.050Z,15.63
2018-12-13T19:49:09.523Z,16.37
2018-12-13T19:51:37.099Z,16.57
2018-12-13T19:54:04.663Z,16.17
2018-12-13T19:56:32.222Z,16.13
2018-12-13T19:58:59.713Z,17.20
2018-12-13T20:01:27.211Z,15.50
2018-12-13T20:03:54.740Z,16.90
2018-12-13T20:06:22.226Z,16.57
2018-12-13T20:08:49.690Z,17.43
2018-12-13T20:11:17.144Z,16.30
2018-12-13T20:13:44.629Z,16.77
2018-12-13T20:16:12.531Z,15.67
2018-12-13T20:18:40.021Z,16.67
2018-12-13T20:21:07.456Z,17.73
2018-12-13T20:23:35.248Z,17.67
2018-12-13T20:26:02.718Z,17.50
2018-12-13T20:28:30.176Z,18.33
2018-12-13T20:30:58.107Z,18.13
2018-12-13T20:33:25.574Z,17.83
2018-12-13T20:35:53.117Z,17.53
2018-12-13T20:38:20.877Z,17.73
2018-12-13T20:40:48.333Z,17.97
2018-12-13T20:43:15.810Z,17.47
2018-12-13T20:45:43.267Z,17.37
2018-12-13T20:48:10.740Z,15.97
2018-12-13T20:50:38.316Z,17.37
2018-12-13T20:53:05.786Z,17.47
2018-12-13T20:55:33.244Z,18.20
2018-12-13T20:58:00.736Z,17.40
2018-12-13T21:00:28.199Z,17.70
2018-12-13T21:02:55.653Z,18.10
2018-12-13T21:05:23.131Z,18.40
2018-12-13T21:07:52.559Z,16.97
2018-12-13T21:10:20.035Z,17.77
2018-12-13T21:12:47.524Z,18.43
2018-12-13T21:15:15.555Z,18.83
2018-12-13T21:17:43.036Z,17.87
2018-12-13T21:20:10.504Z,19.00
2018-12-13T21:22:37.984Z,17.50
2018-12-13T21:25:05.629Z,18.90
2018-12-13T21:27:33.097Z,18.53
2018-12-13T21:30:00.598Z,18.47
2018-12-13T21:32:28.059Z,19.43
2018-12-13T21:34:56.052Z,17.53
2018-12-13T21:37:23.549Z,18.23
2018-12-13T21:39:51.014Z,19.07
2018-12-13T21:42:18.473Z,20.73
2018-12-13T21:44:45.946Z,19.20
2018-12-13T21:47:13.417Z,18.40
2018-12-13T21:49:40.956Z,19.40
2018-12-13T21:52:08.409Z,18.40
2018-12-13T21:54:35.891Z,18.93
2018-12-13T21:57:03.483Z,17.57
2018-12-13T21:59:30.985Z,18.07
2018-12-13T22:01:58.465Z,20.00
2018-12-13T22:04:25.953Z,19.40
2018-12-13T22:06:53.482Z,18.80
2018-12-13T22:09:20.994Z,19.10
2018-12-13T22:11:48.448Z,17.80
2018-12-13T22:14:17.836Z,19.07
2018-12-13T22:16:45.341Z,17.87
2018-12-13T22:19:12.817Z,18.67
2018-12-13T22:21:40.329Z,18.50
2018-12-13T22:24:07.781Z,17.20
2018-12-13T22:26:35.243Z,18.23
2018-12-13T22:29:02.745Z,18.17
2018-12-13T22:31:30.228Z,17.50
2018-12-13T22:33:58.844Z,18.03
2018-12-13T22:36:26.325Z,16.97
2018-12-13T22:38:53.780Z,17.30
2018-12-13T22:41:26.359Z,16.37
2018-12-13T22:43:51.289Z,18.00
2018-12-13T22:46:18.737Z,17.57
2018-12-13T22:48:46.193Z,18.03
2018-12-13T22:51:13.665Z,17.43
2018-12-13T22:53:41.152Z,18.23
2018-12-13T22:56:09.124Z,18.23
2018-12-13T22:58:36.596Z,17.30
2018-12-13T23:01:04.130Z,17.00
2018-12-13T23:03:32.097Z,17.97
2018-12-13T23:05:59.590Z,18.07
2018-12-13T23:08:27.045Z,18.30
2018-12-13T23:10:55.401Z,17.10
2018-12-13T23:13:22.885Z,18.70
2018-12-13T23:15:50.417Z,17.50
2018-12-13T23:18:17.895Z,17.60
2018-12-13T23:20:45.364Z,16.93
2018-12-13T23:23:13.709Z,18.67
2018-12-13T23:25:41.161Z,18.33
2018-12-13T23:28:08.651Z,17.60
2018-12-13T23:30:36.117Z,17.23
2018-12-13T23:33:04.254Z,19.80
2018-12-13T23:35:31.727Z,17.23
2018-12-13T23:37:59.233Z,17.97
2018-12-13T23:40:27.081Z,18.00
2018-12-13T23:42:54.601Z,18.53
2018-12-13T23:45:22.123Z,18.23
2018-12-13T23:47:50.186Z,18.30
2018-12-13T23:50:17.689Z,18.17
2018-12-13T23:52:45.153Z,18.07
2018-12-13T23:55:12.609Z,18.80
2018-12-13T23:57:40.273Z,19.80
